Time,TemperatureF,DewpointF,PressureIn,WindDirection,WindDirectionDegrees,WindSpeedMPH,WindSpeedGustMPH,Humidity,HourlyPrecipIn,Conditions,Clouds,dailyrainin,SoftwareType,DateUTC
2013-05-26 00:23:00,49.1,33.7,30.26,NW,315,0.0,0.0,55,0.00,,,0.00,WUHU21623XXSP,2013-05-26 04:23:00,
2013-05-26 01:23:00,46.2,34.4,30.26,NW,315,0.0,0.0,63,0.00,,,0.00,WUHU21623XXSP,2013-05-26 05:23:00,
2013-05-26 02:23:00,44.6,34.0,30.25,NW,315,0.0,0.0,66,0.00,,,0.00,WUHU21623XXSP,2013-05-26 06:23:00,
2013-05-26 03:23:00,42.4,33.4,30.24,WNW,293,0.0,0.0,70,0.00,,,0.00,WUHU21623XXSP,2013-05-26 07:23:00,
2013-05-26 04:23:00,40.6,32.7,30.26,SW,225,0.0,0.0,73,0.00,,,0.00,WUHU21623XXSP,2013-05-26 08:23:00,
2013-05-26 05:23:00,39.4,31.9,30.27,SW,225,0.0,0.0,74,0.00,,,0.00,WUHU21623XXSP,2013-05-26 09:23:00,
2013-05-26 06:23:00,38.1,31.2,30.28,SW,225,0.0,0.0,76,0.00,,,0.00,WUHU21623XXSP,2013-05-26 10:23:00,
2013-05-26 07:23:00,38.8,32.6,30.29,SW,225,0.0,0.0,78,0.00,,,0.00,WUHU21623XXSP,2013-05-26 11:23:00,
2013-05-26 08:23:00,42.1,34.8,30.31,SW,225,0.0,0.0,75,0.00,,,0.00,WUHU21623XXSP,2013-05-26 12:23:00,
2013-05-26 09:23:00,50.2,36.9,30.31,SW,225,0.0,0.0,60,0.00,,,0.00,WUHU21623XXSP,2013-05-26 13:23:00,
2013-05-26 10:23:00,56.5,38.1,30.30,West,270,0.0,0.0,50,0.00,,,0.00,WUHU21623XXSP,2013-05-26 14:23:00,
2013-05-26 11:23:00,57.9,36.6,30.30,South,180,0.0,0.0,45,0.00,,,0.00,WUHU21623XXSP,2013-05-26 15:23:00,
2013-05-26 12:23:00,61.5,36.8,30.29,SW,225,0.0,0.0,40,0.00,,,0.00,WUHU21623XXSP,2013-05-26 16:23:00,
2013-05-26 13:23:00,62.6,36.5,30.27,WNW,293,2.2,2.2,38,0.00,,,0.00,WUHU21623XXSP,2013-05-26 17:23:00,
2013-05-26 14:23:00,63.7,36.7,30.26,WNW,293,0.0,0.0,37,0.00,,,0.00,WUHU21623XXSP,2013-05-26 18:23:00,
2013-05-26 15:23:00,64.0,36.3,30.25,NNE,23,1.1,1.1,36,0.00,,,0.00,WUHU21623XXSP,2013-05-26 19:23:00,
2013-05-26 16:23:00,65.3,37.5,30.23,WNW,293,0.0,0.0,36,0.00,,,0.00,WUHU21623XXSP,2013-05-26 20:23:00,
2013-05-26 17:23:00,65.8,37.9,30.22,WNW,293,0.0,0.0,36,0.00,,,0.00,WUHU21623XXSP,2013-05-26 21:23:00,
2013-05-26 18:23:00,67.1,39.8,30.22,NW,315,1.1,1.1,37,0.00,,,0.00,WUHU21623XXSP,2013-05-26 22:23:00,
2013-05-26 19:23:00,64.0,38.4,30.22,NW,315,0.0,0.0,39,0.00,,,0.00,WUHU21623XXSP,2013-05-26 23:23:00,
2013-05-26 20:23:00,61.9,37.8,30.22,WNW,293,1.8,1.8,41,0.00,,,0.00,WUHU21623XXSP,2013-05-27 00:23:00,
2013-05-26 21:23:00,59.0,38.7,30.22,WNW,293,0.0,0.0,47,0.00,,,0.00,WUHU21623XXSP,2013-05-27 01:23:00,
2013-05-26 22:23:00,56.1,39.2,30.24,WNW,293,0.0,0.0,53,0.00,,,0.00,WUHU21623XXSP,2013-05-27 02:23:00,
2013-05-26 23:23:00,53.4,39.1,30.25,WNW,293,0.0,0.0,58,0.00,,,0.00,WUHU21623XXSP,2013-05-27 03:23:00,